Time;durP1;ratioP1;P1;durP2;ratioP2;P2;SDS_P1;SDS_P2;PMS_P1;PMS_P2;Temp;Humidity;BMP_temperature;BMP_pressure;BME280_temperature;BME280_humidity;BME280_pressure;Samples;Min_cycle;Max_cycle;Signal;HPM_P1;HPM_P2
2022/04/27 04:02:13;;;;;;;17.57;15.70;;;10.20;99.90;;;;;;5161844;23;20549;-62
2022/04/27 04:04:40;;;;;;;17.93;15.80;;;10.20;99.90;;;;;;4983379;28;20447;-63
2022/04/27 04:07:06;;;;;;;17.07;15.47;;;10.20;99.90;;;;;;4975137;28;20442;-63
2022/04/27 04:09:33;;;;;;;20.00;17.90;;;10.20;99.90;;;;;;4975457;28;20455;-64
2022/04/27 04:12:00;;;;;;;18.10;16.20;;;10.10;99.90;;;;;;4975670;28;20482;-63
2022/04/27 04:14:26;;;;;;;19.20;17.20;;;10.20;99.90;;;;;;4976498;28;20454;-64
2022/04/27 04:16:53;;;;;;;19.37;17.20;;;10.10;99.90;;;;;;4975862;28;20479;-65
2022/04/27 04:19:21;;;;;;;18.37;16.57;;;10.10;99.90;;;;;;4976019;28;20466;-63
2022/04/27 04:21:48;;;;;;;19.23;16.20;;;10.20;99.90;;;;;;4975328;28;20479;-63
2022/04/27 04:24:14;;;;;;;19.53;17.53;;;10.20;99.90;;;;;;4975858;28;20461;-63
2022/04/27 04:29:26;;;;;;;21.53;17.20;;;10.20;99.90;;;;;;4976105;28;20423;-63
2022/04/27 04:31:52;;;;;;;20.33;18.20;;;10.20;99.90;;;;;;4975417;28;20970;-63
2022/04/27 04:34:20;;;;;;;18.67;16.67;;;10.20;99.90;;;;;;4975765;28;20950;-65
2022/04/27 04:36:47;;;;;;;23.80;18.10;;;10.20;99.90;;;;;;4975765;28;20482;-63
2022/04/27 04:39:14;;;;;;;18.10;16.03;;;10.20;99.90;;;;;;4975388;28;20455;-64
2022/04/27 04:41:40;;;;;;;19.57;17.47;;;10.30;99.90;;;;;;4975541;28;20475;-64
2022/04/27 04:44:07;;;;;;;23.70;20.30;;;10.30;99.90;;;;;;4975361;28;20800;-63
2022/04/27 04:46:34;;;;;;;20.70;18.50;;;10.30;99.90;;;;;;4975559;28;20451;-62
2022/04/27 04:49:00;;;;;;;21.73;18.47;;;10.30;99.90;;;;;;4975893;28;20459;-64
2022/04/27 04:51:29;;;;;;;22.00;19.17;;;10.30;99.90;;;;;;4975081;28;20982;-64
2022/04/27 04:53:55;;;;;;;21.67;18.23;;;10.30;99.90;;;;;;4975621;28;20463;-63
2022/04/27 04:56:22;;;;;;;22.97;17.90;;;10.30;99.90;;;;;;4979711;28;20479;-65
2022/04/27 04:58:49;;;;;;;20.93;18.73;;;10.40;99.90;;;;;;4979264;28;20450;-63
2022/04/27 05:01:16;;;;;;;21.63;18.93;;;10.40;99.90;;;;;;4978787;28;20489;-63
2022/04/27 05:03:42;;;;;;;22.77;20.20;;;10.30;99.90;;;;;;4979277;28;20467;-63
2022/04/27 05:06:09;;;;;;;22.30;19.10;;;10.30;99.90;;;;;;4979688;28;20455;-64
2022/04/27 05:08:37;;;;;;;24.50;20.33;;;10.40;99.90;;;;;;4979493;28;20455;-64
2022/04/27 05:11:04;;;;;;;22.43;19.90;;;10.40;99.90;;;;;;4979507;28;20570;-63
2022/04/27 05:13:30;;;;;;;23.60;21.10;;;10.40;99.90;;;;;;4979053;28;20459;-63
2022/04/27 05:15:57;;;;;;;24.73;21.33;;;10.40;99.90;;;;;;4978739;28;20893;-64
2022/04/27 05:18:24;;;;;;;25.50;21.80;;;10.40;99.90;;;;;;4978921;28;20487;-63
2022/04/27 05:20:51;;;;;;;24.23;20.60;;;10.50;99.90;;;;;;4978252;28;20474;-64
2022/04/27 05:23:17;;;;;;;23.30;20.07;;;10.50;99.90;;;;;;4978566;28;20466;-63
2022/04/27 05:25:46;;;;;;;23.90;19.67;;;10.50;99.90;;;;;;4979966;28;20443;-64
2022/04/27 05:28:12;;;;;;;20.60;18.40;;;10.50;99.90;;;;;;4978828;28;20462;-64
2022/04/27 05:33:24;;;;;;;19.50;17.03;;;10.50;99.90;;;;;;4978198;28;20422;-63
2022/04/27 05:35:51;;;;;;;17.43;15.50;;;10.60;99.90;;;;;;4977928;28;20487;-63
2022/04/27 05:38:17;;;;;;;17.43;15.63;;;10.50;99.90;;;;;;4985102;28;20466;-64
2022/04/27 05:40:46;;;;;;;17.83;15.60;;;10.50;99.90;;;;;;4984467;28;20475;-62
2022/04/27 05:43:12;;;;;;;17.20;15.40;;;10.50;99.90;;;;;;4977806;28;20458;-62
2022/04/27 05:45:39;;;;;;;17.73;15.37;;;10.50;99.90;;;;;;4977794;28;20458;-62
2022/04/27 05:48:06;;;;;;;16.27;14.57;;;10.50;99.90;;;;;;4977320;28;20455;-63
2022/04/27 05:50:35;;;;;;;16.83;15.10;;;10.50;99.90;;;;;;4977316;28;20985;-63
2022/04/27 05:53:03;;;;;;;17.60;15.80;;;10.40;99.90;;;;;;4977570;28;20451;-63
2022/04/27 05:55:31;;;;;;;17.50;15.80;;;10.40;99.90;;;;;;4983522;28;20455;-63
2022/04/27 05:57:59;;;;;;;16.53;14.93;;;10.30;99.90;;;;;;4986698;28;20928;-64
2022/04/27 06:00:26;;;;;;;15.03;13.43;;;10.30;99.90;;;;;;4991899;28;20447;-66
2022/04/27 06:02:53;;;;;;;17.27;15.67;;;10.40;99.90;;;;;;4983082;28;20439;-63
2022/04/27 06:05:20;;;;;;;17.13;15.50;;;10.40;99.90;;;;;;4977052;28;20447;-62
2022/04/27 06:07:47;;;;;;;16.83;14.33;;;10.40;99.90;;;;;;4977415;28;20458;-63
2022/04/27 06:10:14;;;;;;;15.00;13.60;;;10.30;99.90;;;;;;4977267;28;20458;-63
2022/04/27 06:12:48;;;;;;;16.50;14.90;;;10.30;99.90;;;;;;4977312;28;20452;-63
2022/04/27 06:15:16;;;;;;;16.47;14.77;;;10.30;99.90;;;;;;4976949;28;20450;-63
2022/04/27 06:17:43;;;;;;;15.03;13.60;;;10.30;99.90;;;;;;4979601;28;20486;-62
2022/04/27 06:20:11;;;;;;;15.70;14.17;;;10.40;99.90;;;;;;4988143;28;20458;-63
2022/04/27 06:22:38;;;;;;;13.43;12.13;;;10.50;99.90;;;;;;4985167;28;20461;-62
2022/04/27 06:25:05;;;;;;;13.00;11.80;;;10.60;99.90;;;;;;4979805;28;20850;-63
2022/04/27 06:27:32;;;;;;;15.07;13.67;;;10.60;99.90;;;;;;4977556;28;20466;-63
2022/04/27 06:29:59;;;;;;;12.97;11.83;;;10.70;99.90;;;;;;4976890;28;20455;-62
2022/04/27 06:32:29;;;;;;;13.47;12.07;;;10.80;99.90;;;;;;4977491;28;20478;-63
2022/04/27 06:34:56;;;;;;;13.83;12.50;;;10.80;99.90;;;;;;4976595;28;20443;-64
2022/04/27 06:37:23;;;;;;;13.10;11.80;;;10.90;99.90;;;;;;4976423;28;20483;-63
2022/04/27 06:39:49;;;;;;;13.10;12.00;;;10.90;99.90;;;;;;4976418;28;20462;-63
2022/04/27 06:42:19;;;;;;;14.63;13.33;;;11.00;99.90;;;;;;4976143;28;20474;-63
2022/04/27 06:44:46;;;;;;;13.53;12.30;;;11.00;99.90;;;;;;4978765;28;20978;-63
2022/04/27 06:47:13;;;;;;;13.43;12.23;;;11.00;99.90;;;;;;4976118;28;20977;-63
2022/04/27 06:49:41;;;;;;;13.43;12.23;;;11.10;99.90;;;;;;4976045;28;20965;-63
2022/04/27 06:52:08;;;;;;;14.33;12.93;;;11.00;99.90;;;;;;4976985;28;20485;-63
2022/04/27 06:54:34;;;;;;;13.90;12.50;;;11.10;99.90;;;;;;4977560;28;20506;-63
2022/04/27 06:57:01;;;;;;;13.80;12.40;;;11.10;99.90;;;;;;4977171;28;20825;-63
2022/04/27 06:59:28;;;;;;;13.93;12.53;;;11.00;99.90;;;;;;4977036;28;20454;-64
2022/04/27 07:01:55;;;;;;;14.23;12.83;;;11.10;99.90;;;;;;4976656;28;20490;-63
2022/04/27 07:04:22;;;;;;;13.50;12.23;;;11.10;99.90;;;;;;4976776;28;20458;-64
2022/04/27 07:06:50;;;;;;;14.33;13.03;;;11.20;99.90;;;;;;4975659;28;20950;-64
2022/04/27 07:09:16;;;;;;;13.70;12.33;;;11.30;99.90;;;;;;4975689;28;20451;-64
2022/04/27 07:11:44;;;;;;;12.50;11.30;;;11.30;99.90;;;;;;4975675;28;20485;-63
2022/04/27 07:14:15;;;;;;;12.67;11.27;;;11.40;99.90;;;;;;4975862;28;20550;-64
2022/04/27 07:16:42;;;;;;;14.00;12.70;;;11.60;99.90;;;;;;4982860;28;20477;-62
2022/04/27 07:19:09;;;;;;;11.50;10.60;;;11.80;99.90;;;;;;4982927;28;20943;-64
2022/04/27 07:21:36;;;;;;;10.17;9.37;;;12.10;99.90;;;;;;4976852;28;20997;-62
2022/04/27 07:24:04;;;;;;;9.07;8.13;;;12.40;99.90;;;;;;4975912;28;20458;-64
2022/04/27 07:26:31;;;;;;;10.20;9.30;;;12.70;99.90;;;;;;4975354;28;20946;-63
2022/04/27 07:28:58;;;;;;;10.17;9.37;;;13.10;99.90;;;;;;4975708;28;20463;-63
2022/04/27 07:31:26;;;;;;;8.67;8.07;;;13.30;99.90;;;;;;4975457;28;20485;-64
2022/04/27 07:33:53;;;;;;;8.10;7.33;;;13.70;99.90;;;;;;4975446;28;20946;-64
2022/04/27 07:36:20;;;;;;;8.57;7.87;;;13.90;99.90;;;;;;4975504;28;20450;-63
2022/04/27 07:38:47;;;;;;;8.33;7.63;;;14.10;99.90;;;;;;4975661;28;20462;-63
2022/04/27 07:41:15;;;;;;;7.60;7.00;;;14.10;99.90;;;;;;4975380;28;20475;-63
2022/04/27 07:43:42;;;;;;;7.50;7.00;;;14.30;99.90;;;;;;4975362;28;20502;-63
2022/04/27 07:46:09;;;;;;;8.20;7.60;;;14.40;99.90;;;;;;4975255;28;20861;-63
2022/04/27 07:48:36;;;;;;;7.07;6.57;;;14.50;99.90;;;;;;4975197;28;20458;-63
2022/04/27 07:51:05;;;;;;;6.90;6.40;;;14.70;99.90;;;;;;4974982;28;20482;-64
2022/04/27 07:53:32;;;;;;;6.83;6.33;;;15.10;99.90;;;;;;4975150;28;20462;-63
2022/04/27 07:55:58;;;;;;;6.47;6.07;;;15.60;99.90;;;;;;4975269;28;20459;-63
2022/04/27 07:58:26;;;;;;;6.77;6.27;;;15.60;99.90;;;;;;4974803;28;20570;-62
2022/04/27 08:00:53;;;;;;;5.63;5.13;;;15.50;99.90;;;;;;4975010;28;20541;-64
2022/04/27 08:03:20;;;;;;;6.47;6.07;;;15.60;99.90;;;;;;4975379;28;20884;-64
2022/04/27 08:05:46;;;;;;;7.87;7.27;;;15.60;99.90;;;;;;4975139;28;20510;-64
2022/04/27 08:08:13;;;;;;;7.37;6.87;;;15.40;99.90;;;;;;4975492;28;20455;-64
2022/04/27 08:10:40;;;;;;;7.60;7.10;;;15.40;99.90;;;;;;4975351;28;20474;-63
2022/04/27 08:13:07;;;;;;;6.80;6.30;;;15.50;99.90;;;;;;4975192;28;20462;-63
2022/04/27 08:15:35;;;;;;;7.40;6.40;;;15.60;99.90;;;;;;4975390;28;20556;-63
2022/04/27 08:18:03;;;;;;;6.53;6.03;;;15.60;99.90;;;;;;4975296;28;21016;-65
2022/04/27 08:23:17;;;;;;;7.60;6.90;;;15.40;99.90;;;;;;4974824;28;20809;-63
2022/04/27 08:25:45;;;;;;;7.60;7.00;;;15.40;99.90;;;;;;4975344;28;20513;-63
2022/04/27 08:28:11;;;;;;;7.47;6.97;;;15.40;99.90;;;;;;4974881;28;20454;-63
2022/04/27 08:30:41;;;;;;;7.17;6.50;;;15.10;99.90;;;;;;4977196;28;20586;-62
2022/04/27 08:33:09;;;;;;;6.70;6.23;;;15.00;99.90;;;;;;4978711;28;20961;-63
2022/04/27 08:35:37;;;;;;;6.87;6.37;;;15.10;99.90;;;;;;4978619;28;20473;-63
2022/04/27 08:38:05;;;;;;;7.47;6.83;;;15.10;99.90;;;;;;4978573;28;20529;-63
2022/04/27 08:40:32;;;;;;;7.30;6.80;;;15.20;99.90;;;;;;4978373;28;21010;-63
2022/04/27 08:43:01;;;;;;;6.50;6.10;;;15.00;99.90;;;;;;4978199;28;20459;-63
2022/04/27 08:45:28;;;;;;;7.20;6.60;;;15.00;99.90;;;;;;4978439;28;20514;-63
2022/04/27 08:47:59;;;;;;;8.10;7.43;;;14.70;99.90;;;;;;4978481;28;20461;-63
2022/04/27 08:50:26;;;;;;;7.70;7.10;;;14.50;99.90;;;;;;4978261;28;20798;-64
2022/04/27 08:52:54;;;;;;;8.27;7.53;;;14.60;99.90;;;;;;4978109;28;20463;-63
2022/04/27 08:55:21;;;;;;;6.87;6.33;;;14.50;99.90;;;;;;4986366;28;20459;-63
2022/04/27 08:57:48;;;;;;;7.60;7.10;;;14.50;99.90;;;;;;4986391;28;20506;-63
2022/04/27 09:00:16;;;;;;;7.57;7.00;;;14.50;99.90;;;;;;4979139;28;20938;-64
2022/04/27 09:02:43;;;;;;;8.00;7.20;;;14.60;99.90;;;;;;4978522;28;20443;-63
2022/04/27 09:05:13;;;;;;;7.80;7.10;;;14.70;99.90;;;;;;4977957;28;20950;-62
2022/04/27 09:07:41;;;;;;;7.53;6.93;;;14.70;99.90;;;;;;4978104;28;20479;-62
2022/04/27 09:10:10;;;;;;;7.40;6.80;;;14.60;99.90;;;;;;4977990;28;20455;-63
2022/04/27 09:12:44;;;;;;;6.93;6.43;;;14.60;99.90;;;;;;4978846;28;20482;-63
2022/04/27 09:15:11;;;;;;;6.60;6.00;;;14.60;99.90;;;;;;4977783;28;20883;-64
2022/04/27 09:23:24;;;;;;;8.10;7.50;;;14.70;99.90;;;;;;4989080;28;20427;-64
2022/04/27 09:25:52;;;;;;;8.43;7.70;;;14.50;99.90;;;;;;4981089;28;20447;-63
2022/04/27 09:28:22;;;;;;;8.83;8.13;;;14.50;99.90;;;;;;4977469;28;20455;-63
2022/04/27 09:30:49;;;;;;;8.10;7.40;;;14.60;99.90;;;;;;4978304;28;20471;-63
2022/04/27 09:33:31;;;;;;;8.03;7.43;;;14.80;99.90;;;;;;4977447;28;20542;-63
2022/04/27 09:35:59;;;;;;;7.90;7.30;;;15.00;99.90;;;;;;4977395;28;20475;-63
2022/04/27 09:38:26;;;;;;;7.03;6.43;;;15.20;99.90;;;;;;4977336;28;20478;-63
2022/04/27 09:40:55;;;;;;;7.10;6.60;;;15.30;99.90;;;;;;4976604;28;20514;-63
2022/04/27 09:43:45;;;;;;;7.37;6.87;;;15.30;99.90;;;;;;4977333;28;20466;-62
2022/04/27 09:46:20;;;;;;;7.30;6.70;;;15.40;99.90;;;;;;4976830;28;21033;-64
2022/04/27 09:48:49;;;;;;;6.27;5.77;;;15.50;99.90;;;;;;4977192;28;20440;-63
2022/04/27 09:51:17;;;;;;;6.10;5.70;;;15.70;99.90;;;;;;4977391;28;20874;-63
2022/04/27 09:53:46;;;;;;;6.23;5.73;;;16.30;99.90;;;;;;4977157;28;20466;-63
2022/04/27 09:56:14;;;;;;;6.10;5.60;;;16.70;99.90;;;;;;4976946;28;20463;-63
2022/04/27 09:58:44;;;;;;;6.00;5.60;;;17.10;99.90;;;;;;4976826;28;20485;-64
2022/04/27 10:01:13;;;;;;;6.40;5.90;;;17.40;99.90;;;;;;4976827;28;20497;-63
2022/04/27 10:03:42;;;;;;;6.00;5.60;;;17.40;99.90;;;;;;4976894;28;20455;-64
2022/04/27 10:06:09;;;;;;;6.03;5.63;;;17.80;99.90;;;;;;4977744;28;20918;-63
2022/04/27 10:08:39;;;;;;;5.00;4.70;;;18.20;99.90;;;;;;4976654;28;20822;-62
2022/04/27 10:11:06;;;;;;;5.83;5.43;;;18.90;99.90;;;;;;4976494;28;20911;-63
2022/04/27 10:13:34;;;;;;;6.37;5.77;;;19.70;99.90;;;;;;4976923;28;20801;-63
2022/04/27 10:16:01;;;;;;;6.83;6.23;;;20.30;99.90;;;;;;4976919;28;20487;-64
2022/04/27 10:18:27;;;;;;;7.10;6.50;;;20.00;99.20;;;;;;4976700;28;20489;-63
2022/04/27 10:20:54;;;;;;;7.33;6.83;;;19.50;97.50;;;;;;4976480;28;20898;-63
2022/04/27 10:23:28;;;;;;;6.50;6.00;;;18.80;98.30;;;;;;4976774;28;20459;-63
2022/04/27 10:26:12;;;;;;;7.07;6.50;;;18.50;99.90;;;;;;4976630;28;20447;-63
2022/04/27 10:28:42;;;;;;;7.70;7.10;;;17.90;99.90;;;;;;4976519;28;20447;-63
2022/04/27 10:31:08;;;;;;;7.40;6.83;;;17.50;99.90;;;;;;4976353;28;20475;-63
2022/04/27 10:33:50;;;;;;;6.37;5.97;;;17.10;99.90;;;;;;4976269;28;20457;-63
2022/04/27 10:36:39;;;;;;;8.30;7.50;;;16.70;99.90;;;;;;4976381;28;20814;-63
2022/04/27 10:39:26;;;;;;;7.57;7.07;;;16.30;99.90;;;;;;4975838;28;20566;-63
2022/04/27 10:42:25;;;;;;;6.27;5.77;;;16.20;99.90;;;;;;4976041;28;20486;-64
2022/04/27 10:45:10;;;;;;;7.27;6.77;;;16.20;99.90;;;;;;4972564;28;20946;-63
2022/04/27 10:47:41;;;;;;;6.60;6.20;;;16.30;99.90;;;;;;4976473;28;20455;-65
2022/04/27 10:50:33;;;;;;;8.73;7.20;;;16.30;99.90;;;;;;4975668;28;20439;-63
2022/04/27 10:53:15;;;;;;;6.60;6.20;;;16.50;99.90;;;;;;4975640;28;20443;-64
2022/04/27 10:55:48;;;;;;;6.90;6.37;;;16.50;99.90;;;;;;4976537;28;20846;-64
2022/04/27 10:58:24;;;;;;;6.83;6.33;;;16.50;99.90;;;;;;4976524;28;20462;-63
2022/04/27 11:01:27;;;;;;;8.10;7.50;;;16.40;99.90;;;;;;4976079;28;20869;-63
2022/04/27 11:04:05;;;;;;;7.47;6.87;;;16.20;99.90;;;;;;4976548;28;20530;-65
2022/04/27 11:07:06;;;;;;;7.20;6.70;;;16.10;99.90;;;;;;4976276;28;20435;-63
2022/04/27 11:09:50;;;;;;;7.20;6.60;;;15.80;99.90;;;;;;4976244;28;20454;-63
2022/04/27 11:12:18;;;;;;;7.00;6.40;;;16.30;99.90;;;;;;4975808;28;21001;-63
2022/04/27 11:14:46;;;;;;;6.60;6.20;;;17.00;99.90;;;;;;4976088;28;20459;-63
2022/04/27 11:17:26;;;;;;;7.00;6.40;;;18.00;99.90;;;;;;4976138;28;20451;-64
2022/04/27 11:19:53;;;;;;;7.23;6.70;;;18.90;99.90;;;;;;4976102;28;20435;-63
2022/04/27 11:22:20;;;;;;;7.23;6.73;;;19.30;98.70;;;;;;4976025;28;20571;-64
2022/04/27 11:24:48;;;;;;;6.83;6.33;;;19.30;98.00;;;;;;4975804;28;20542;-63
2022/04/27 11:27:22;;;;;;;6.87;6.43;;;19.20;98.10;;;;;;4975604;28;20816;-63
2022/04/27 11:29:51;;;;;;;6.97;6.47;;;19.00;99.00;;;;;;4975998;28;20438;-64
2022/04/27 11:32:19;;;;;;;7.00;6.50;;;18.80;98.10;;;;;;4975681;28;20475;-64
2022/04/27 11:34:48;;;;;;;6.17;5.77;;;18.20;97.80;;;;;;4975786;28;20454;-65
2022/04/27 11:37:16;;;;;;;6.60;6.20;;;17.90;99.10;;;;;;4975771;28;20467;-64
2022/04/27 11:39:45;;;;;;;5.90;5.50;;;17.80;99.90;;;;;;4975271;28;20485;-64
2022/04/27 11:42:12;;;;;;;6.00;5.60;;;18.00;99.90;;;;;;4975572;28;20482;-64
2022/04/27 11:44:40;;;;;;;5.90;5.50;;;18.40;99.90;;;;;;4975797;28;20443;-64
2022/04/27 11:47:27;;;;;;;6.53;6.00;;;18.80;99.90;;;;;;4975573;28;20474;-64
2022/04/27 11:49:55;;;;;;;6.23;5.83;;;19.10;98.80;;;;;;4975913;28;20438;-65
2022/04/27 11:52:22;;;;;;;6.20;5.80;;;19.30;97.50;;;;;;4975451;28;20479;-65
2022/04/27 11:54:49;;;;;;;7.00;6.53;;;19.50;98.80;;;;;;4975198;28;20472;-65
2022/04/27 11:57:21;;;;;;;6.00;5.60;;;19.80;99.90;;;;;;4975098;28;20450;-65
2022/04/27 11:59:49;;;;;;;5.97;5.47;;;20.00;96.80;;;;;;4974820;28;20886;-64
2022/04/27 12:02:22;;;;;;;6.60;6.10;;;20.10;96.40;;;;;;4974389;28;20494;-64
2022/04/27 12:04:52;;;;;;;7.43;6.73;;;20.10;94.60;;;;;;4977498;28;20474;-64
2022/04/27 12:07:21;;;;;;;6.60;6.03;;;19.90;93.50;;;;;;4978517;28;20489;-63
2022/04/27 12:10:00;;;;;;;6.57;6.07;;;19.70;95.60;;;;;;4978752;28;20455;-64
2022/04/27 12:12:28;;;;;;;6.60;6.20;;;19.50;95.40;;;;;;4978387;28;20829;-64
2022/04/27 12:14:56;;;;;;;6.90;6.40;;;19.30;96.40;;;;;;4978837;28;20463;-64
2022/04/27 12:17:47;;;;;;;6.70;6.30;;;19.20;97.40;;;;;;4978762;28;20462;-64
2022/04/27 12:20:34;;;;;;;7.13;6.53;;;19.10;96.20;;;;;;4978602;28;20620;-65
2022/04/27 12:23:02;;;;;;;6.87;6.37;;;18.80;96.10;;;;;;4978320;28;20439;-64
2022/04/27 12:25:34;;;;;;;5.97;5.47;;;18.60;96.10;;;;;;4978544;28;20490;-64
2022/04/27 12:28:02;;;;;;;5.50;5.10;;;18.30;96.00;;;;;;4978477;28;20451;-66
2022/04/27 12:30:29;;;;;;;4.97;4.67;;;18.60;99.90;;;;;;4978334;28;20470;-65
2022/04/27 12:32:56;;;;;;;5.83;5.43;;;19.10;99.90;;;;;;4978402;28;20458;-65
2022/04/27 12:38:25;;;;;;;5.97;5.57;;;20.00;97.30;;;;;;4954354;28;20476;-64
2022/04/27 12:40:52;;;;;;;6.00;5.60;;;20.30;93.70;;;;;;4978322;28;20478;-63
2022/04/27 12:43:20;;;;;;;6.70;6.20;;;19.90;92.80;;;;;;4978218;28;20462;-64
2022/04/27 12:46:08;;;;;;;6.77;6.37;;;19.60;92.20;;;;;;4978103;28;20459;-64
2022/04/27 12:48:35;;;;;;;6.47;5.97;;;19.00;94.20;;;;;;4978125;28;20446;-67
2022/04/27 12:51:04;;;;;;;7.23;6.53;;;18.80;94.40;;;;;;4977847;28;20824;-67
2022/04/27 12:53:32;;;;;;;6.27;5.83;;;18.50;95.60;;;;;;4978138;28;20466;-65
2022/04/27 12:56:04;;;;;;;6.80;6.40;;;18.50;95.20;;;;;;4984398;28;20459;-64
2022/04/27 12:58:32;;;;;;;6.07;5.57;;;18.40;94.60;;;;;;4986891;28;21048;-64
2022/04/27 13:00:59;;;;;;;6.67;6.07;;;18.50;95.50;;;;;;4977895;28;20491;-64
2022/04/27 13:03:26;;;;;;;6.77;6.27;;;18.60;96.20;;;;;;4977992;28;20446;-64
2022/04/27 13:05:53;;;;;;;6.50;6.10;;;18.60;96.20;;;;;;4977650;28;20942;-64
2022/04/27 13:08:20;;;;;;;6.00;5.60;;;18.60;94.90;;;;;;4977710;28;20466;-64
2022/04/27 13:13:34;;;;;;;6.00;5.60;;;18.70;96.30;;;;;;4977724;28;20832;-64
2022/04/27 13:16:00;;;;;;;6.67;6.17;;;18.70;97.40;;;;;;4976415;28;20455;-63
2022/04/27 13:18:27;;;;;;;6.27;5.87;;;18.50;96.00;;;;;;4977489;28;20481;-64
2022/04/27 13:20:54;;;;;;;6.63;6.03;;;18.60;95.80;;;;;;4977653;28;20486;-64
2022/04/27 13:23:22;;;;;;;6.87;6.23;;;18.70;95.80;;;;;;4977234;28;20818;-64
2022/04/27 13:25:50;;;;;;;6.70;6.20;;;18.80;95.90;;;;;;4977625;28;20459;-64
2022/04/27 13:28:17;;;;;;;6.30;5.90;;;18.90;94.70;;;;;;4977596;28;20450;-64
2022/04/27 13:30:44;;;;;;;6.60;6.20;;;18.80;94.90;;;;;;4977359;28;20471;-65
2022/04/27 13:33:11;;;;;;;6.50;6.00;;;18.70;96.40;;;;;;4977482;28;20455;-64
2022/04/27 13:35:38;;;;;;;5.73;5.40;;;18.60;95.10;;;;;;4977531;28;20465;-64
2022/04/27 13:38:06;;;;;;;5.40;5.10;;;18.70;95.40;;;;;;4977019;28;20969;-64
2022/04/27 13:40:34;;;;;;;6.10;5.50;;;18.80;94.80;;;;;;4977217;28;20816;-64
2022/04/27 13:43:02;;;;;;;6.80;6.30;;;18.80;94.80;;;;;;4977225;28;20489;-64
2022/04/27 13:45:30;;;;;;;7.23;6.73;;;18.80;95.70;;;;;;4977440;28;20455;-64
2022/04/27 13:47:56;;;;;;;7.23;6.77;;;18.70;94.10;;;;;;4976784;28;20513;-64
2022/04/27 13:50:23;;;;;;;7.63;6.90;;;18.60;95.00;;;;;;4976942;28;20506;-65
2022/04/27 13:52:50;;;;;;;7.07;6.43;;;18.50;95.20;;;;;;4977285;28;20455;-64
2022/04/27 13:55:17;;;;;;;7.27;6.77;;;18.50;95.30;;;;;;4976819;28;20819;-64
2022/04/27 13:57:44;;;;;;;6.17;5.67;;;18.60;95.40;;;;;;4976993;28;20455;-64
2022/04/27 14:00:13;;;;;;;7.17;6.47;;;18.60;95.30;;;;;;4977005;28;20489;-64
2022/04/27 14:02:41;;;;;;;6.90;6.20;;;18.70;96.10;;;;;;4976911;28;20451;-64
2022/04/27 14:05:09;;;;;;;7.10;6.60;;;18.60;95.60;;;;;;4976596;28;20455;-64
2022/04/27 14:07:36;;;;;;;6.73;6.33;;;18.70;95.80;;;;;;4976714;28;20451;-64
2022/04/27 14:10:04;;;;;;;6.37;5.97;;;18.60;96.00;;;;;;4976655;28;20447;-64
2022/04/27 14:15:17;;;;;;;6.03;5.63;;;18.60;95.80;;;;;;4977250;28;20499;-65
2022/04/27 14:20:28;;;;;;;7.60;7.00;;;18.30;95.20;;;;;;4976114;28;20819;-64
2022/04/27 14:22:56;;;;;;;6.47;6.07;;;18.20;95.60;;;;;;4976552;28;20459;-65
2022/04/27 14:25:22;;;;;;;7.13;6.63;;;18.20;95.10;;;;;;4976413;28;20529;-64
2022/04/27 14:27:50;;;;;;;7.77;7.00;;;18.30;95.50;;;;;;4976309;28;20461;-64
2022/04/27 14:30:18;;;;;;;7.37;6.77;;;18.30;96.10;;;;;;4976412;28;20451;-64
2022/04/27 14:32:45;;;;;;;6.73;6.30;;;18.10;94.00;;;;;;4976122;28;20481;-64
2022/04/27 14:35:12;;;;;;;6.33;5.93;;;18.00;93.30;;;;;;4976079;28;20459;-64
2022/04/27 14:37:38;;;;;;;6.10;5.70;;;18.10;94.00;;;;;;4975674;28;20478;-64
2022/04/27 14:40:06;;;;;;;6.90;5.97;;;18.40;95.90;;;;;;4976134;28;20498;-64
2022/04/27 14:42:33;;;;;;;7.17;6.57;;;18.50;95.60;;;;;;4976148;28;20529;-64
2022/04/27 14:45:00;;;;;;;6.30;5.90;;;18.50;95.40;;;;;;4975702;28;20462;-64
2022/04/27 14:47:28;;;;;;;6.37;5.97;;;18.60;96.00;;;;;;4975929;28;20939;-64
2022/04/27 14:49:56;;;;;;;6.13;5.73;;;18.70;95.30;;;;;;4975532;28;20510;-64
2022/04/27 14:52:23;;;;;;;7.67;7.17;;;18.90;96.30;;;;;;4975811;28;20538;-64
2022/04/27 14:54:49;;;;;;;6.70;6.20;;;19.00;94.40;;;;;;4976217;28;20462;-63
2022/04/27 14:57:16;;;;;;;7.23;6.73;;;19.00;91.90;;;;;;4976237;28;20458;-65
2022/04/27 14:59:43;;;;;;;6.83;6.40;;;18.90;92.20;;;;;;4975927;28;20478;-64
2022/04/27 15:02:11;;;;;;;7.70;7.07;;;18.90;91.50;;;;;;4975447;28;21017;-63
2022/04/27 15:04:39;;;;;;;6.67;6.20;;;19.00;92.70;;;;;;4976037;28;20490;-64
2022/04/27 15:07:05;;;;;;;7.27;6.67;;;19.00;92.60;;;;;;4976290;28;20490;-65
2022/04/27 15:09:32;;;;;;;6.47;6.07;;;19.10;92.80;;;;;;4975618;28;20801;-64
2022/04/27 15:11:59;;;;;;;7.10;6.60;;;19.20;93.00;;;;;;4975301;28;20471;-64
2022/04/27 15:14:26;;;;;;;7.87;7.17;;;19.30;93.70;;;;;;4975578;28;20461;-65
2022/04/27 15:16:52;;;;;;;7.37;6.87;;;19.40;92.90;;;;;;4975503;28;20455;-65
2022/04/27 15:19:19;;;;;;;7.37;6.87;;;19.50;92.10;;;;;;4975061;28;21008;-68
2022/04/27 15:24:32;;;;;;;7.10;6.60;;;19.60;95.50;;;;;;4975153;28;20782;-68
2022/04/27 15:26:59;;;;;;;6.27;5.90;;;19.70;94.70;;;;;;4975369;28;20889;-68
2022/04/27 15:29:26;;;;;;;6.50;6.10;;;19.80;94.90;;;;;;4975532;28;20573;-68
2022/04/27 15:31:53;;;;;;;8.10;7.30;;;19.90;95.20;;;;;;4975517;28;20990;-69
2022/04/27 15:34:20;;;;;;;6.50;6.10;;;19.80;93.50;;;;;;4975835;28;20457;-69
2022/04/27 15:36:48;;;;;;;6.40;5.90;;;19.70;92.50;;;;;;4975596;28;20541;-68
2022/04/27 15:39:15;;;;;;;6.83;6.33;;;19.60;91.30;;;;;;4974881;28;20482;-69
2022/04/27 15:41:42;;;;;;;7.30;6.80;;;19.40;92.90;;;;;;4975532;28;20475;-69
2022/04/27 15:44:10;;;;;;;6.83;6.40;;;19.20;94.00;;;;;;4977024;28;20945;-68
2022/04/27 15:46:37;;;;;;;6.60;6.10;;;19.10;92.70;;;;;;4992212;28;20451;-67
2022/04/27 15:49:04;;;;;;;5.77;5.47;;;19.20;94.40;;;;;;4979565;28;20460;-68
2022/04/27 15:51:31;;;;;;;5.90;5.50;;;19.20;93.60;;;;;;4975170;28;20478;-68
2022/04/27 15:53:59;;;;;;;6.67;5.50;;;19.20;90.80;;;;;;4975343;28;20462;-67
2022/04/27 15:56:26;;;;;;;7.13;6.60;;;19.10;91.70;;;;;;4975058;28;20459;-67
2022/04/27 15:58:54;;;;;;;6.40;6.00;;;18.90;89.40;;;;;;4974920;28;20459;-68
2022/04/27 16:01:21;;;;;;;6.10;5.70;;;18.70;90.50;;;;;;4974811;28;20482;-68
2022/04/27 16:03:48;;;;;;;6.30;5.90;;;18.70;91.60;;;;;;4974883;28;20942;-68
2022/04/27 16:06:15;;;;;;;6.20;5.90;;;18.70;93.30;;;;;;4974927;28;20461;-67
2022/04/27 16:08:42;;;;;;;6.63;6.13;;;18.70;92.80;;;;;;4975028;28;20822;-68
2022/04/27 16:11:10;;;;;;;6.63;6.17;;;18.70;92.80;;;;;;4974846;28;20514;-68
2022/04/27 16:13:37;;;;;;;5.90;5.60;;;18.60;92.80;;;;;;4974592;28;20591;-68
2022/04/27 16:16:04;;;;;;;7.27;6.67;;;18.60;92.90;;;;;;4974482;28;20827;-68
2022/04/27 16:18:31;;;;;;;6.33;5.90;;;18.30;91.60;;;;;;4974769;28;20455;-68
2022/04/27 16:23:42;;;;;;;6.40;5.93;;;18.20;93.20;;;;;;4974988;28;20415;-68
2022/04/27 16:26:10;;;;;;;6.23;5.83;;;18.30;94.10;;;;;;4974779;28;20451;-67
2022/04/27 16:28:37;;;;;;;5.77;5.40;;;18.30;93.90;;;;;;4975055;28;20470;-68
2022/04/27 16:31:03;;;;;;;6.67;6.17;;;18.30;94.40;;;;;;4973367;28;20475;-68
2022/04/27 16:33:30;;;;;;;5.93;5.53;;;18.40;93.60;;;;;;4974715;28;20517;-67
2022/04/27 16:35:57;;;;;;;6.80;6.30;;;18.40;93.50;;;;;;4974702;28;20465;-68
2022/04/27 16:38:24;;;;;;;5.83;5.43;;;18.20;92.50;;;;;;4974765;28;20455;-68
2022/04/27 16:40:51;;;;;;;6.33;5.63;;;18.20;93.70;;;;;;4974504;28;20514;-67
2022/04/27 16:43:19;;;;;;;6.53;6.03;;;18.20;94.00;;;;;;4974654;28;20462;-68
2022/04/27 16:45:46;;;;;;;6.47;6.00;;;18.20;94.30;;;;;;4974779;28;20465;-68
2022/04/27 16:48:12;;;;;;;6.07;5.67;;;18.30;94.40;;;;;;4974498;28;20526;-67
2022/04/27 16:50:39;;;;;;;6.10;5.60;;;18.20;93.50;;;;;;4974919;28;20467;-68
2022/04/27 16:53:06;;;;;;;6.57;5.87;;;18.20;94.00;;;;;;4978326;28;20485;-68
2022/04/27 16:55:33;;;;;;;5.60;5.27;;;18.20;92.60;;;;;;4978317;28;20817;-68
2022/04/27 16:58:00;;;;;;;8.47;5.60;;;18.20;93.50;;;;;;4978039;28;20458;-66
2022/04/27 17:03:12;;;;;;;6.00;5.60;;;18.00;93.40;;;;;;4978168;28;20438;-67
2022/04/27 17:05:39;;;;;;;6.40;5.80;;;18.00;92.60;;;;;;4977989;28;20476;-66
2022/04/27 17:08:06;;;;;;;6.00;5.60;;;18.00;94.50;;;;;;4977757;28;20458;-66
2022/04/27 17:10:34;;;;;;;6.43;5.17;;;17.90;94.00;;;;;;4978092;28;20458;-67
2022/04/27 17:13:01;;;;;;;5.30;5.00;;;17.90;93.70;;;;;;4978478;28;20538;-65
2022/04/27 17:15:31;;;;;;;6.30;5.17;;;17.90;93.60;;;;;;4977478;28;20960;-64
2022/04/27 17:17:58;;;;;;;5.77;5.47;;;17.80;92.90;;;;;;4977571;28;20994;-64
2022/04/27 17:20:25;;;;;;;6.20;5.80;;;17.70;92.60;;;;;;4977616;28;20479;-64
2022/04/27 17:22:52;;;;;;;6.00;5.60;;;17.60;92.80;;;;;;4977662;28;20458;-64